< < Back
Terminal Aerodrome Forecast


Current Version              Previous Versions:   1  2  3  4  5  6  7  8  9  

Terminal Aerodrome Forecast

422
FTUS44 KBMX 311829 AAA
TAFTCL
TAF AMD
KTCL 311829Z 3118/0118 26009KT P6SM VCTS SCT060CB
      TEMPO 3118/3121 25012G19KT 6SM TSRA BR BKN060CB
     FM010000 00000KT P6SM SCT250=

Latest METAR

145
SAUS70 KWBC 312000 RRK
MTRTCL
METAR KTCL 311953Z 33007KT 300V360 8SM -TSRA FEW080 OVC110 26/18 A2992
RMK AO2 LTG DSNT N AND NE TSB1859E14B19 SLP130 P0001
T02560183


USA.gov is the U.S. government's official web portal to all federal, state and local government web resources and services.